TAF LFRD
LFRD 261700Z 2618/2718 31020G30KT 9999 BKN025 TEMPO 2618/2718 4000 SHRA BKN020CB PROB40 TEMPO 2618/2715 34030G50KT 2000 TSRAGS BKN010 BKN015CB BECMG 2708/2710 34025G45KT=
METAR LFRD
LFRD 270800Z AUTO 34033G49KT 9999 -RA FEW023/// SCT028/// BKN034/// ///TCU 06/03 Q0994 TEMPO 2000 TSRAGS BKN010 BKN015CB=
LFRD 270730Z AUTO 36028G40KT 9999 -RA BKN032/// BKN049/// OVC082/// ///TCU 06/03 Q0993 TEMPO 34035G50KT 2000 TSRAGS BKN010 BKN015CB=
LFRD 270700Z AUTO 34030G43KT 9000 -RA SCT028/// BKN035/// BKN046/// ///TCU 06/03 Q0993 TEMPO 2000 TSRAGS BKN010 BKN015CB=
LFRD 270630Z AUTO 34026G42KT 9999 SCT029/// BKN037/// BKN044/// ///TCU 07/03 Q0993 TEMPO 2000 TSRAGS BKN010 BKN015CB=
LFRD 270600Z AUTO 34027G42KT 9999 SCT023/// BKN030/// BKN036/// ///TCU 06/03 Q0993 TEMPO 2000 TSRAGS BKN010 BKN015CB=
WC LFRD
WS LFRD
WV LFRD